Time;durP1;ratioP1;P1;durP2;ratioP2;P2;SDS_P1;SDS_P2;PMS_P1;PMS_P2;Temp;Humidity;BMP_temperature;BMP_pressure;BME280_temperature;BME280_humidity;BME280_pressure;Samples;Min_cycle;Max_cycle;Signal;HPM_P1;HPM_P2
2022/06/19 00:00:37;;;;;;;6.93;2.15;;;;;;;;;;4975562;28;20461;-81
2022/06/19 00:03:06;;;;;;;6.72;2.40;;;;;;;;;;4992141;28;20102;-81
2022/06/19 00:05:32;;;;;;;7.90;2.10;;;;;;;;;;4993122;28;20089;-81
2022/06/19 00:07:57;;;;;;;6.97;2.42;;;;;;;;;;4991984;28;20037;-82
2022/06/19 00:10:23;;;;;;;10.85;2.25;;;;;;;;;;4975878;28;20042;-81
2022/06/19 00:12:48;;;;;;;8.88;2.28;;;;;;;;;;4991876;28;20030;-82
2022/06/19 00:15:15;;;;;;;6.50;2.10;;;;;;;;;;4991632;28;20030;-82
2022/06/19 00:17:41;;;;;;;8.73;2.70;;;;;;;;;;4993003;28;20030;-82
2022/06/19 00:20:07;;;;;;;5.47;1.90;;;;;;;;;;4991774;28;20454;-82
2022/06/19 00:22:33;;;;;;;8.82;2.42;;;;;;;;;;4959648;28;20479;-82
2022/06/19 00:24:58;;;;;;;7.50;2.30;;;;;;;;;;4991687;28;20073;-82
2022/06/19 00:27:24;;;;;;;5.80;2.25;;;;;;;;;;4991279;28;20030;-83
2022/06/19 00:29:50;;;;;;;6.97;2.13;;;;;;;;;;4975448;28;20031;-82
2022/06/19 00:32:18;;;;;;;6.88;1.95;;;;;;;;;;4991508;28;20034;-81
2022/06/19 00:34:43;;;;;;;7.03;1.95;;;;;;;;;;4991802;28;20034;-82
2022/06/19 00:37:09;;;;;;;9.07;2.40;;;;;;;;;;4959371;28;20145;-82
2022/06/19 00:39:39;;;;;;;5.88;1.65;;;;;;;;;;4992716;28;20081;-81
2022/06/19 00:42:06;;;;;;;8.05;2.22;;;;;;;;;;4993401;28;20057;-82
2022/06/19 00:44:31;;;;;;;8.25;2.13;;;;;;;;;;4975597;28;20106;-82
2022/06/19 00:47:08;;;;;;;7.10;2.50;;;;;;;;;;4991789;28;20038;-81
2022/06/19 00:49:35;;;;;;;6.03;1.85;;;;;;;;;;4992867;28;20014;-82
2022/06/19 00:52:17;;;;;;;7.90;2.25;;;;;;;;;;4993143;28;20026;-82
2022/06/19 00:54:47;;;;;;;11.43;2.00;;;;;;;;;;4992898;28;20467;-82
2022/06/19 00:57:13;;;;;;;8.23;2.00;;;;;;;;;;4975164;28;20406;-82
2022/06/19 00:59:41;;;;;;;8.82;2.00;;;;;;;;;;4991615;28;20030;-82
2022/06/19 01:02:06;;;;;;;9.18;2.55;;;;;;;;;;4995144;28;20037;-82
2022/06/19 01:04:43;;;;;;;9.73;3.03;;;;;;;;;;4994783;28;20424;-82
2022/06/19 01:07:09;;;;;;;7.07;2.00;;;;;;;;;;4975182;28;20079;-82
2022/06/19 01:09:35;;;;;;;8.38;2.08;;;;;;;;;;4992804;28;20121;-82
2022/06/19 01:12:02;;;;;;;7.40;1.95;;;;;;;;;;4975161;28;20169;-82
2022/06/19 01:14:28;;;;;;;6.72;1.88;;;;;;;;;;4974995;28;20065;-82
2022/06/19 01:16:53;;;;;;;7.97;2.00;;;;;;;;;;4975297;28;20058;-82
2022/06/19 01:19:41;;;;;;;9.25;2.33;;;;;;;;;;4992770;28;20046;-82
2022/06/19 01:22:22;;;;;;;5.90;1.92;;;;;;;;;;4991041;28;20105;-82
2022/06/19 01:25:12;;;;;;;8.80;1.83;;;;;;;;;;4992410;28;20140;-81
2022/06/19 01:30:30;;;;;;;7.03;1.70;;;;;;;;;;4991477;28;20029;-82
2022/06/19 01:32:57;;;;;;;6.00;1.75;;;;;;;;;;4990952;28;20050;-82
2022/06/19 01:35:23;;;;;;;7.35;1.75;;;;;;;;;;4991189;28;20463;-82
2022/06/19 01:37:49;;;;;;;8.98;1.95;;;;;;;;;;4991048;28;20041;-82
2022/06/19 01:40:30;;;;;;;6.60;1.98;;;;;;;;;;4977948;28;20038;-82
2022/06/19 01:42:56;;;;;;;6.78;2.15;;;;;;;;;;4994709;28;20038;-82
2022/06/19 01:45:22;;;;;;;6.85;1.65;;;;;;;;;;4994328;28;20042;-81
2022/06/19 01:47:48;;;;;;;12.32;2.30;;;;;;;;;;4978266;28;20113;-82
2022/06/19 01:50:23;;;;;;;3.58;1.80;;;;;;;;;;4962019;28;20112;-82
2022/06/19 01:52:52;;;;;;;5.28;1.60;;;;;;;;;;4994418;28;20061;-82
2022/06/19 01:55:19;;;;;;;6.20;1.92;;;;;;;;;;4994768;28;20054;-82
2022/06/19 01:57:51;;;;;;;4.95;1.80;;;;;;;;;;4994167;28;20097;-81
2022/06/19 02:00:20;;;;;;;4.97;1.67;;;;;;;;;;4993978;28;20034;-82
2022/06/19 02:02:51;;;;;;;5.25;1.50;;;;;;;;;;4994956;28;20458;-82
2022/06/19 02:05:18;;;;;;;6.60;1.98;;;;;;;;;;4994359;28;20435;-82
2022/06/19 02:07:43;;;;;;;8.50;1.80;;;;;;;;;;4978342;28;20415;-82
2022/06/19 02:10:09;;;;;;;4.90;1.67;;;;;;;;;;4995676;28;20092;-84
2022/06/19 02:12:35;;;;;;;6.03;2.05;;;;;;;;;;4977556;28;20038;-82
2022/06/19 02:15:07;;;;;;;5.15;2.20;;;;;;;;;;4994033;28;20113;-82
2022/06/19 02:17:39;;;;;;;4.45;1.65;;;;;;;;;;4993738;28;20109;-82
2022/06/19 02:20:06;;;;;;;5.45;1.50;;;;;;;;;;4993752;28;20022;-82
2022/06/19 02:22:31;;;;;;;5.65;1.35;;;;;;;;;;4977957;28;20414;-81
2022/06/19 02:24:57;;;;;;;4.32;1.45;;;;;;;;;;4995018;28;20037;-82
2022/06/19 02:27:24;;;;;;;3.67;1.30;;;;;;;;;;4993797;28;20037;-82
2022/06/19 02:29:49;;;;;;;4.55;1.52;;;;;;;;;;4994035;28;20026;-82
2022/06/19 02:32:29;;;;;;;4.43;1.25;;;;;;;;;;4977314;28;20479;-81
2022/06/19 02:34:54;;;;;;;7.38;1.77;;;;;;;;;;4977463;28;20566;-82
2022/06/19 02:37:24;;;;;;;5.97;2.13;;;;;;;;;;4993328;28;20125;-81
2022/06/19 02:39:55;;;;;;;5.68;1.30;;;;;;;;;;4993484;28;20129;-81
2022/06/19 02:42:20;;;;;;;4.28;1.58;;;;;;;;;;4977115;28;20077;-81
2022/06/19 02:44:51;;;;;;;3.63;1.33;;;;;;;;;;4994546;28;20030;-81
2022/06/19 02:47:17;;;;;;;3.65;1.42;;;;;;;;;;4977144;28;20022;-82
2022/06/19 02:49:42;;;;;;;6.25;1.40;;;;;;;;;;4976965;28;20109;-82
2022/06/19 02:52:10;;;;;;;3.42;1.20;;;;;;;;;;4976874;28;20445;-82
2022/06/19 02:54:36;;;;;;;3.30;1.80;;;;;;;;;;4993252;28;20471;-83
2022/06/19 02:57:01;;;;;;;9.52;1.70;;;;;;;;;;4994460;28;20027;-82
2022/06/19 02:59:27;;;;;;;7.03;1.30;;;;;;;;;;4993198;28;20019;-82
2022/06/19 03:01:52;;;;;;;4.32;1.50;;;;;;;;;;4994268;28;20538;-82
2022/06/19 03:04:27;;;;;;;6.85;1.52;;;;;;;;;;4993040;28;20030;-81
2022/06/19 03:06:53;;;;;;;6.72;1.40;;;;;;;;;;4993156;28;20364;-81
2022/06/19 03:09:18;;;;;;;5.10;1.77;;;;;;;;;;4976573;28;20042;-82
2022/06/19 03:11:44;;;;;;;3.42;1.35;;;;;;;;;;4993087;28;20111;-82
2022/06/19 03:14:10;;;;;;;4.15;1.60;;;;;;;;;;4992885;28;20026;-82
2022/06/19 03:16:35;;;;;;;4.43;1.40;;;;;;;;;;4992655;28;20486;-82
2022/06/19 03:19:01;;;;;;;7.22;1.70;;;;;;;;;;4976607;28;20045;-82
2022/06/19 03:21:26;;;;;;;5.40;1.50;;;;;;;;;;4992834;28;20030;-82
2022/06/19 03:23:52;;;;;;;7.75;2.28;;;;;;;;;;4994011;28;20082;-82
2022/06/19 03:26:17;;;;;;;3.50;1.33;;;;;;;;;;4992450;28;20424;-82
2022/06/19 03:28:42;;;;;;;5.70;1.48;;;;;;;;;;4993926;28;20026;-81
2022/06/19 03:31:13;;;;;;;7.95;2.10;;;;;;;;;;4976200;28;20387;-82
2022/06/19 03:33:39;;;;;;;5.40;1.58;;;;;;;;;;4993652;28;20093;-82
2022/06/19 03:36:05;;;;;;;5.47;1.40;;;;;;;;;;4993567;28;20042;-82
2022/06/19 03:38:31;;;;;;;7.03;2.20;;;;;;;;;;4976242;28;20353;-81
2022/06/19 03:40:56;;;;;;;6.63;1.92;;;;;;;;;;4975953;28;20042;-81
2022/06/19 03:43:22;;;;;;;6.95;2.13;;;;;;;;;;4975961;28;20133;-82
2022/06/19 03:45:47;;;;;;;10.80;2.40;;;;;;;;;;4992172;28;20030;-81
2022/06/19 03:48:13;;;;;;;6.43;1.67;;;;;;;;;;4993537;28;20554;-82
2022/06/19 03:50:39;;;;;;;7.20;1.80;;;;;;;;;;4992373;28;20030;-82
2022/06/19 03:53:05;;;;;;;8.95;1.63;;;;;;;;;;4991936;28;20031;-82
2022/06/19 03:55:30;;;;;;;7.25;1.67;;;;;;;;;;4975784;28;20041;-82
2022/06/19 03:57:56;;;;;;;8.55;1.75;;;;;;;;;;4991852;28;20041;-82
2022/06/19 04:00:21;;;;;;;7.10;1.77;;;;;;;;;;4992367;28;20459;-81
2022/06/19 04:02:46;;;;;;;6.40;1.35;;;;;;;;;;4991351;28;20027;-81
2022/06/19 04:05:13;;;;;;;6.93;1.80;;;;;;;;;;4992014;28;20474;-82
2022/06/19 04:07:47;;;;;;;7.93;1.77;;;;;;;;;;4992348;28;20085;-82
2022/06/19 04:10:14;;;;;;;6.60;1.73;;;;;;;;;;4992133;28;20033;-82
2022/06/19 04:12:39;;;;;;;8.95;1.77;;;;;;;;;;4991980;28;20042;-82
2022/06/19 04:15:05;;;;;;;5.22;1.58;;;;;;;;;;4991629;28;20478;-81
2022/06/19 04:17:30;;;;;;;6.82;1.63;;;;;;;;;;4993290;28;20022;-82
2022/06/19 04:19:56;;;;;;;4.15;1.25;;;;;;;;;;4991328;28;20125;-82
2022/06/19 04:22:21;;;;;;;4.78;1.50;;;;;;;;;;4975370;28;20069;-82
2022/06/19 04:24:47;;;;;;;4.40;1.48;;;;;;;;;;5007944;28;20034;-82
2022/06/19 04:27:12;;;;;;;4.47;1.48;;;;;;;;;;4993090;28;20480;-82
2022/06/19 04:29:37;;;;;;;4.78;1.50;;;;;;;;;;4991540;28;20027;-82
2022/06/19 04:32:04;;;;;;;3.42;1.23;;;;;;;;;;4975903;28;20022;-82
2022/06/19 04:34:29;;;;;;;7.82;1.50;;;;;;;;;;4993057;28;20022;-82
2022/06/19 04:36:55;;;;;;;6.25;1.40;;;;;;;;;;4994128;28;20372;-82
2022/06/19 04:39:20;;;;;;;3.88;1.42;;;;;;;;;;4994435;28;20038;-82
2022/06/19 04:41:46;;;;;;;9.75;1.75;;;;;;;;;;4976384;28;20146;-82
2022/06/19 04:44:15;;;;;;;3.58;1.10;;;;;;;;;;4992625;28;20049;-81
2022/06/19 04:46:41;;;;;;;4.10;1.35;;;;;;;;;;4981586;28;20534;-82
2022/06/19 04:49:07;;;;;;;3.70;1.25;;;;;;;;;;4993789;28;20479;-82
2022/06/19 04:51:33;;;;;;;4.25;1.45;;;;;;;;;;4992560;28;20089;-82
2022/06/19 04:53:58;;;;;;;3.05;1.20;;;;;;;;;;4992580;28;20027;-82
2022/06/19 04:56:23;;;;;;;3.10;1.27;;;;;;;;;;4993928;28;20034;-82
2022/06/19 04:58:50;;;;;;;3.22;1.25;;;;;;;;;;4976198;28;20037;-82
2022/06/19 05:01:21;;;;;;;3.80;1.42;;;;;;;;;;4976426;28;20089;-83
2022/06/19 05:03:47;;;;;;;3.80;1.40;;;;;;;;;;4992345;28;20550;-82
2022/06/19 05:06:12;;;;;;;2.58;1.00;;;;;;;;;;4993865;28;20110;-82
2022/06/19 05:08:37;;;;;;;3.00;1.20;;;;;;;;;;4993624;28;20034;-81
2022/06/19 05:11:03;;;;;;;4.65;1.20;;;;;;;;;;4993264;28;20030;-81
2022/06/19 05:13:28;;;;;;;5.15;1.40;;;;;;;;;;4994301;28;20132;-81
2022/06/19 05:16:15;;;;;;;6.20;1.52;;;;;;;;;;4996596;28;20030;-82
2022/06/19 05:18:40;;;;;;;4.55;1.33;;;;;;;;;;4998361;28;20464;-83
2022/06/19 05:21:06;;;;;;;5.03;1.60;;;;;;;;;;4999331;28;20037;-81
2022/06/19 05:23:36;;;;;;;3.97;1.58;;;;;;;;;;4998323;28;20118;-83
2022/06/19 05:26:22;;;;;;;6.25;1.67;;;;;;;;;;4998523;28;20033;-83
2022/06/19 05:28:49;;;;;;;4.50;1.30;;;;;;;;;;4997974;28;20027;-82
2022/06/19 05:31:14;;;;;;;4.40;1.50;;;;;;;;;;4997082;28;20041;-82
2022/06/19 05:33:40;;;;;;;6.68;1.77;;;;;;;;;;4997498;28;20030;-82
2022/06/19 05:36:05;;;;;;;4.32;1.40;;;;;;;;;;4999633;28;20117;-81
2022/06/19 05:38:31;;;;;;;9.43;2.10;;;;;;;;;;4997785;28;20088;-81
2022/06/19 05:40:58;;;;;;;7.18;1.73;;;;;;;;;;4982885;28;20042;-82
2022/06/19 05:43:25;;;;;;;4.60;1.52;;;;;;;;;;4999954;28;20026;-83
2022/06/19 05:46:16;;;;;;;4.90;1.77;;;;;;;;;;5000343;28;20030;-83
2022/06/19 05:48:42;;;;;;;4.25;1.33;;;;;;;;;;4997452;28;20026;-83
2022/06/19 05:51:14;;;;;;;6.15;2.10;;;;;;;;;;4981798;28;20034;-84
2022/06/19 05:53:41;;;;;;;6.28;1.80;;;;;;;;;;4996501;28;20088;-82
2022/06/19 05:56:07;;;;;;;5.55;1.80;;;;;;;;;;4997434;28;20030;-81
2022/06/19 05:58:33;;;;;;;6.35;1.80;;;;;;;;;;4997467;28;20041;-82
2022/06/19 06:00:58;;;;;;;3.70;1.42;;;;;;;;;;4996330;28;20117;-82
2022/06/19 06:03:25;;;;;;;7.35;1.60;;;;;;;;;;4996220;28;20038;-82
2022/06/19 06:05:51;;;;;;;6.60;1.85;;;;;;;;;;4998478;28;20047;-82
2022/06/19 06:08:17;;;;;;;9.00;1.85;;;;;;;;;;4997838;28;20030;-82
2022/06/19 06:10:42;;;;;;;8.55;1.80;;;;;;;;;;4997382;28;20030;-81
2022/06/19 06:13:08;;;;;;;7.38;2.03;;;;;;;;;;4998202;28;20035;-80
2022/06/19 06:15:34;;;;;;;5.88;1.92;;;;;;;;;;4996318;28;20054;-80
2022/06/19 06:18:00;;;;;;;6.55;1.50;;;;;;;;;;4996617;28;20037;-80
2022/06/19 06:20:27;;;;;;;7.68;1.98;;;;;;;;;;4996683;28;20034;-81
2022/06/19 06:22:52;;;;;;;10.70;2.00;;;;;;;;;;4986700;28;20096;-82
2022/06/19 06:25:18;;;;;;;11.23;2.13;;;;;;;;;;4978126;28;20495;-81
2022/06/19 06:27:43;;;;;;;5.88;1.80;;;;;;;;;;4995520;28;20549;-81
2022/06/19 06:30:11;;;;;;;7.40;2.10;;;;;;;;;;4995953;28;20054;-81
2022/06/19 06:32:36;;;;;;;7.97;1.75;;;;;;;;;;4996111;28;20030;-82
2022/06/19 06:35:02;;;;;;;6.78;1.92;;;;;;;;;;4996190;28;20034;-82
2022/06/19 06:37:27;;;;;;;6.18;1.85;;;;;;;;;;4997160;28;20034;-82
2022/06/19 06:39:52;;;;;;;10.90;1.88;;;;;;;;;;4979189;28;20045;-82
2022/06/19 06:42:18;;;;;;;4.97;1.70;;;;;;;;;;4995568;28;20394;-82
2022/06/19 06:44:43;;;;;;;8.38;2.30;;;;;;;;;;4995753;28;20093;-82
2022/06/19 06:47:08;;;;;;;5.28;1.58;;;;;;;;;;4979450;28;20038;-82
2022/06/19 06:49:34;;;;;;;14.55;2.40;;;;;;;;;;4996833;28;20117;-80
2022/06/19 06:51:59;;;;;;;6.28;1.67;;;;;;;;;;4997744;28;20031;-80
2022/06/19 06:54:25;;;;;;;7.38;2.03;;;;;;;;;;4998754;28;20027;-81
2022/06/19 06:56:50;;;;;;;7.22;1.70;;;;;;;;;;4980573;28;20475;-82
2022/06/19 06:59:16;;;;;;;5.05;1.98;;;;;;;;;;4994909;28;20049;-81
2022/06/19 07:01:41;;;;;;;4.72;1.73;;;;;;;;;;4995032;28;20044;-80
2022/06/19 07:04:07;;;;;;;7.22;1.70;;;;;;;;;;4996622;28;20031;-81
2022/06/19 07:06:33;;;;;;;8.88;2.40;;;;;;;;;;4995243;28;20049;-80
2022/06/19 07:08:59;;;;;;;6.60;2.10;;;;;;;;;;4995035;28;20031;-81
2022/06/19 07:11:27;;;;;;;5.72;1.90;;;;;;;;;;4995484;28;20026;-83
2022/06/19 07:13:54;;;;;;;6.07;1.90;;;;;;;;;;4994200;28;20022;-82
2022/06/19 07:16:19;;;;;;;5.18;1.80;;;;;;;;;;4993483;28;20391;-81
2022/06/19 07:18:45;;;;;;;10.98;2.20;;;;;;;;;;4993671;28;20026;-82
2022/06/19 07:21:11;;;;;;;5.55;2.05;;;;;;;;;;4971168;28;20031;-81
2022/06/19 07:23:37;;;;;;;11.00;2.92;;;;;;;;;;4973680;28;20109;-81
2022/06/19 07:26:03;;;;;;;8.00;2.10;;;;;;;;;;4973645;28;20030;-82
2022/06/19 07:28:29;;;;;;;13.90;2.22;;;;;;;;;;4974872;28;20509;-82
2022/06/19 07:30:54;;;;;;;7.25;2.13;;;;;;;;;;4973898;28;20041;-82
2022/06/19 07:33:19;;;;;;;7.38;2.20;;;;;;;;;;4957741;28;20399;-83
2022/06/19 07:35:45;;;;;;;13.77;2.70;;;;;;;;;;4976433;28;20030;-83
2022/06/19 07:38:10;;;;;;;14.50;2.63;;;;;;;;;;4993117;28;20050;-83
2022/06/19 07:40:36;;;;;;;8.73;2.53;;;;;;;;;;4994776;28;20088;-82
2022/06/19 07:43:04;;;;;;;11.13;2.67;;;;;;;;;;4993024;28;20042;-81
2022/06/19 07:45:30;;;;;;;9.85;2.72;;;;;;;;;;4976340;28;20061;-79
2022/06/19 07:50:40;;;;;;;6.93;2.67;;;;;;;;;;4994032;28;20117;-82
2022/06/19 07:53:05;;;;;;;7.43;2.10;;;;;;;;;;4993118;28;20062;-83
2022/06/19 07:55:31;;;;;;;8.02;2.28;;;;;;;;;;4994204;28;20034;-83
2022/06/19 07:57:59;;;;;;;7.72;2.50;;;;;;;;;;4992845;28;20088;-85
2022/06/19 08:00:28;;;;;;;5.72;1.73;;;;;;;;;;4992467;28;20106;-81
2022/06/19 08:02:54;;;;;;;5.97;2.28;;;;;;;;;;4976385;28;20098;-81
2022/06/19 08:05:23;;;;;;;6.22;2.30;;;;;;;;;;4992594;28;20030;-81
2022/06/19 08:07:50;;;;;;;6.65;2.00;;;;;;;;;;4976042;28;20097;-81
2022/06/19 08:10:42;;;;;;;6.07;2.13;;;;;;;;;;4992147;28;20380;-81
2022/06/19 08:13:08;;;;;;;10.48;2.58;;;;;;;;;;4992282;28;20502;-81
2022/06/19 08:15:34;;;;;;;5.18;1.92;;;;;;;;;;4992897;28;20034;-81
2022/06/19 08:18:00;;;;;;;12.85;2.20;;;;;;;;;;4997105;28;20081;-80
2022/06/19 08:20:25;;;;;;;6.95;2.33;;;;;;;;;;4989431;28;20030;-80
2022/06/19 08:22:51;;;;;;;7.03;1.77;;;;;;;;;;4998708;28;20042;-83
2022/06/19 08:25:18;;;;;;;6.15;1.73;;;;;;;;;;4974968;28;20039;-81
2022/06/19 08:27:47;;;;;;;5.00;2.13;;;;;;;;;;4973016;28;20018;-83
2022/06/19 08:30:46;;;;;;;8.73;2.70;;;;;;;;;;4974555;28;20110;-82
2022/06/19 08:33:12;;;;;;;10.07;2.35;;;;;;;;;;4952111;28;20114;-83
2022/06/19 08:35:44;;;;;;;8.45;2.72;;;;;;;;;;4957458;28;20065;-82
2022/06/19 08:38:21;;;;;;;9.57;2.22;;;;;;;;;;4973104;28;20025;-83
2022/06/19 08:41:23;;;;;;;8.05;2.13;;;;;;;;;;4957064;28;20443;-82
2022/06/19 08:44:01;;;;;;;6.65;2.20;;;;;;;;;;4973043;28;20394;-82
2022/06/19 08:46:49;;;;;;;5.82;2.00;;;;;;;;;;4973009;28;20494;-82
2022/06/19 08:49:32;;;;;;;8.32;2.30;;;;;;;;;;4975149;28;20089;-82
2022/06/19 08:52:04;;;;;;;7.55;2.30;;;;;;;;;;4978229;28;20105;-83
2022/06/19 08:54:59;;;;;;;7.72;2.45;;;;;;;;;;4976818;28;20078;-83
2022/06/19 08:57:27;;;;;;;16.88;4.28;;;;;;;;;;4936588;28;20042;-83
2022/06/19 09:00:08;;;;;;;8.00;2.35;;;;;;;;;;4977625;28;20027;-83
2022/06/19 09:02:45;;;;;;;12.18;3.17;;;;;;;;;;4977856;28;20114;-84
2022/06/19 09:08:22;;;;;;;9.77;2.88;;;;;;;;;;4977591;28;20620;-81
2022/06/19 09:11:02;;;;;;;13.07;3.05;;;;;;;;;;4976045;28;20027;-81
2022/06/19 09:13:42;;;;;;;11.52;2.83;;;;;;;;;;4975791;28;20113;-82
2022/06/19 09:16:36;;;;;;;10.90;3.10;;;;;;;;;;4976033;28;20023;-81
2022/06/19 09:19:14;;;;;;;13.27;3.38;;;;;;;;;;4975987;28;20538;-82
2022/06/19 09:22:08;;;;;;;9.68;2.60;;;;;;;;;;4976054;28;20538;-82
2022/06/19 09:25:01;;;;;;;8.98;2.53;;;;;;;;;;4975805;28;20415;-81
2022/06/19 09:27:33;;;;;;;10.63;2.38;;;;;;;;;;4977049;28;20098;-80
2022/06/19 09:30:08;;;;;;;7.60;2.65;;;;;;;;;;4976452;28;20026;-82
2022/06/19 09:32:41;;;;;;;11.43;2.33;;;;;;;;;;4976967;28;20019;-81
2022/06/19 09:35:12;;;;;;;11.60;2.28;;;;;;;;;;4961703;28;20399;-81
2022/06/19 09:37:50;;;;;;;7.10;2.22;;;;;;;;;;4977423;28;20031;-81
2022/06/19 09:40:24;;;;;;;9.38;2.15;;;;;;;;;;4961983;28;20399;-82
2022/06/19 09:43:04;;;;;;;7.28;2.00;;;;;;;;;;4983414;28;20046;-82
2022/06/19 09:45:36;;;;;;;9.48;2.30;;;;;;;;;;4968301;28;20035;-81
2022/06/19 09:48:43;;;;;;;8.57;2.17;;;;;;;;;;4960625;28;20550;-80
2022/06/19 09:51:29;;;;;;;6.65;1.80;;;;;;;;;;4934063;28;20042;-81
2022/06/19 09:54:10;;;;;;;7.13;1.90;;;;;;;;;;4976505;28;20031;-81
2022/06/19 09:56:54;;;;;;;6.68;2.17;;;;;;;;;;4975988;28;20023;-80
2022/06/19 09:59:21;;;;;;;11.50;2.70;;;;;;;;;;4976285;28;20031;-80
2022/06/19 10:01:57;;;;;;;7.20;1.48;;;;;;;;;;4976442;28;20085;-80
2022/06/19 10:04:58;;;;;;;7.03;2.20;;;;;;;;;;4976642;28;20023;-81
2022/06/19 10:07:25;;;;;;;7.80;2.95;;;;;;;;;;4959664;28;20035;-79
2022/06/19 10:09:59;;;;;;;5.32;1.70;;;;;;;;;;4975495;28;20046;-78
2022/06/19 10:12:29;;;;;;;;;;;;;;;;;;4977260;28;20035;-80
2022/06/19 10:15:00;;;;;;;8.20;2.15;;;;;;;;;;4976050;28;19960;-79
2022/06/19 10:17:31;;;;;;;6.60;1.88;;;;;;;;;;4959371;28;20467;-81
2022/06/19 10:20:02;;;;;;;6.28;2.20;;;;;;;;;;4958872;28;20053;-80
2022/06/19 10:22:50;;;;;;;6.68;1.70;;;;;;;;;;4959452;28;20058;-80
2022/06/19 10:25:34;;;;;;;7.50;1.80;;;;;;;;;;4961845;28;20085;-80
2022/06/19 10:28:17;;;;;;;5.85;2.05;;;;;;;;;;4977961;28;20031;-80
2022/06/19 10:31:05;;;;;;;4.65;1.60;;;;;;;;;;4977711;28;20472;-80
2022/06/19 10:33:56;;;;;;;6.75;1.90;;;;;;;;;;4976341;28;20475;-80
2022/06/19 10:36:43;;;;;;;9.82;1.95;;;;;;;;;;4973558;28;20089;-82
2022/06/19 10:39:15;;;;;;;5.05;1.65;;;;;;;;;;4976906;28;20061;-80
2022/06/19 10:42:11;;;;;;;5.72;1.80;;;;;;;;;;4975100;28;20019;-80
2022/06/19 10:44:58;;;;;;;6.80;2.10;;;;;;;;;;4976610;28;20022;-79
2022/06/19 10:47:45;;;;;;;8.00;2.22;;;;;;;;;;4976736;28;20494;-80
2022/06/19 10:50:30;;;;;;;4.53;1.50;;;;;;;;;;4976644;28;20027;-79
2022/06/19 10:53:11;;;;;;;3.78;1.38;;;;;;;;;;4974766;28;20074;-79
2022/06/19 10:56:02;;;;;;;6.65;1.58;;;;;;;;;;4976273;28;20031;-80
2022/06/19 10:58:29;;;;;;;5.78;1.70;;;;;;;;;;4974954;28;20034;-79
2022/06/19 11:01:01;;;;;;;7.75;1.65;;;;;;;;;;4975013;28;20030;-80
2022/06/19 11:06:18;;;;;;;7.18;1.80;;;;;;;;;;4976572;28;20400;-80
2022/06/19 11:08:47;;;;;;;4.30;1.40;;;;;;;;;;4976919;28;20050;-81
2022/06/19 11:11:17;;;;;;;4.43;1.77;;;;;;;;;;4978974;28;20062;-80
2022/06/19 11:13:55;;;;;;;3.47;1.40;;;;;;;;;;4959357;28;20026;-79
2022/06/19 11:16:21;;;;;;;5.03;1.63;;;;;;;;;;4974073;28;20037;-78
2022/06/19 11:18:50;;;;;;;3.88;1.35;;;;;;;;;;4958084;28;20296;-78
2022/06/19 11:21:19;;;;;;;3.30;1.40;;;;;;;;;;4975615;28;20034;-79
2022/06/19 11:23:47;;;;;;;3.40;1.40;;;;;;;;;;4975101;28;20046;-78
2022/06/19 11:26:35;;;;;;;3.95;1.63;;;;;;;;;;4975601;28;20475;-81
2022/06/19 11:29:13;;;;;;;3.95;1.30;;;;;;;;;;4975004;28;20113;-82
2022/06/19 11:31:59;;;;;;;4.50;1.67;;;;;;;;;;4977270;28;20121;-81
2022/06/19 11:37:21;;;;;;;3.70;1.27;;;;;;;;;;4962750;28;20097;-79
2022/06/19 11:40:09;;;;;;;3.47;1.35;;;;;;;;;;4976302;28;20035;-82
2022/06/19 11:42:45;;;;;;;2.38;1.20;;;;;;;;;;4959400;28;20038;-76
2022/06/19 11:45:14;;;;;;;4.30;1.50;;;;;;;;;;4974869;28;20077;-78
2022/06/19 11:47:43;;;;;;;2.78;1.10;;;;;;;;;;4976002;28;20030;-77
2022/06/19 11:50:20;;;;;;;5.43;1.27;;;;;;;;;;4975970;28;20387;-77
2022/06/19 11:52:58;;;;;;;3.70;1.02;;;;;;;;;;4975916;28;20030;-78
2022/06/19 11:55:31;;;;;;;4.32;1.30;;;;;;;;;;4974324;28;20027;-78
2022/06/19 11:58:01;;;;;;;5.05;1.38;;;;;;;;;;4975833;28;20031;-81
2022/06/19 12:00:30;;;;;;;3.97;1.40;;;;;;;;;;4975158;28;20114;-79
2022/06/19 12:02:58;;;;;;;3.95;1.10;;;;;;;;;;4957336;28;20546;-78
2022/06/19 12:05:31;;;;;;;2.90;1.27;;;;;;;;;;4957646;28;20446;-80
2022/06/19 12:08:03;;;;;;;3.63;1.10;;;;;;;;;;4957938;28;20035;-80
2022/06/19 12:10:32;;;;;;;2.60;0.93;;;;;;;;;;4958082;28;20047;-79
2022/06/19 12:13:00;;;;;;;2.53;1.27;;;;;;;;;;4974279;28;20535;-86
2022/06/19 12:15:29;;;;;;;6.35;1.48;;;;;;;;;;4957526;28;20037;-80
2022/06/19 12:17:57;;;;;;;3.67;1.40;;;;;;;;;;4973069;28;20121;-81
2022/06/19 12:20:31;;;;;;;4.68;1.25;;;;;;;;;;4957363;28;20030;-81
2022/06/19 12:23:07;;;;;;;3.63;1.17;;;;;;;;;;4972718;28;20070;-80
2022/06/19 12:25:37;;;;;;;6.03;1.30;;;;;;;;;;4974368;28;20025;-80
2022/06/19 12:28:14;;;;;;;3.95;1.30;;;;;;;;;;4956788;28;20480;-79
2022/06/19 12:30:59;;;;;;;6.55;1.45;;;;;;;;;;4972695;28;20086;-79
2022/06/19 12:33:31;;;;;;;5.78;1.60;;;;;;;;;;4972627;28;20033;-79
2022/06/19 12:35:59;;;;;;;4.10;1.35;;;;;;;;;;4974095;28;20110;-80
2022/06/19 12:38:25;;;;;;;4.75;1.30;;;;;;;;;;4975317;28;20084;-80
2022/06/19 12:41:06;;;;;;;2.58;1.20;;;;;;;;;;4974949;28;20043;-80
2022/06/19 12:43:52;;;;;;;5.00;1.30;;;;;;;;;;4972585;28;20538;-81
2022/06/19 12:46:35;;;;;;;3.67;1.10;;;;;;;;;;4956315;28;20037;-81
2022/06/19 12:49:09;;;;;;;3.50;1.35;;;;;;;;;;4973714;28;20026;-80
2022/06/19 12:51:52;;;;;;;4.82;1.55;;;;;;;;;;4973246;28;20034;-80
2022/06/19 12:54:44;;;;;;;2.40;1.10;;;;;;;;;;4972619;28;20038;-79
2022/06/19 12:57:28;;;;;;;4.57;1.10;;;;;;;;;;4970208;28;20042;-80
2022/06/19 13:00:11;;;;;;;6.18;1.75;;;;;;;;;;4973404;28;20428;-80
2022/06/19 13:02:55;;;;;;;3.13;1.30;;;;;;;;;;4972913;28;20033;-80
2022/06/19 13:05:48;;;;;;;3.63;1.75;;;;;;;;;;4973602;28;20117;-82
2022/06/19 13:08:47;;;;;;;4.93;1.60;;;;;;;;;;4973485;28;20096;-81
2022/06/19 13:11:33;;;;;;;3.45;1.55;;;;;;;;;;4973954;28;20109;-81
2022/06/19 13:14:27;;;;;;;3.20;1.25;;;;;;;;;;4973627;28;20027;-81
2022/06/19 13:17:12;;;;;;;3.38;1.05;;;;;;;;;;4956607;28;20022;-80
2022/06/19 13:19:54;;;;;;;6.38;1.50;;;;;;;;;;4972749;28;20506;-81
2022/06/19 13:22:19;;;;;;;5.70;1.48;;;;;;;;;;4972652;28;20055;-79
2022/06/19 13:25:00;;;;;;;3.20;1.30;;;;;;;;;;4974293;28;20034;-81
2022/06/19 13:27:36;;;;;;;3.13;1.13;;;;;;;;;;4973240;28;20456;-79
2022/06/19 13:30:09;;;;;;;3.10;1.58;;;;;;;;;;4972819;28;20026;-80
2022/06/19 13:32:56;;;;;;;2.67;1.20;;;;;;;;;;4974607;28;20038;-80
2022/06/19 13:35:36;;;;;;;6.45;1.30;;;;;;;;;;4974848;28;20031;-80
2022/06/19 13:38:09;;;;;;;2.38;1.10;;;;;;;;;;4977581;28;20027;-80
2022/06/19 13:41:24;;;;;;;5.35;1.20;;;;;;;;;;4977754;28;20042;-80
2022/06/19 13:44:11;;;;;;;1.23;0.93;;;;;;;;;;4956241;29;20059;-81
2022/06/19 13:46:47;;;;;;;2.47;1.20;;;;;;;;;;4977708;28;20089;-80
2022/06/19 13:49:29;;;;;;;3.30;1.02;;;;;;;;;;4960342;28;20041;-81
2022/06/19 13:52:27;;;;;;;2.17;0.90;;;;;;;;;;4960291;28;20447;-81
2022/06/19 13:55:07;;;;;;;3.83;1.17;;;;;;;;;;4959827;28;20031;-80
2022/06/19 13:58:10;;;;;;;1.98;0.82;;;;;;;;;;4959807;28;20033;-80
2022/06/19 14:00:53;;;;;;;2.85;1.25;;;;;;;;;;4976120;28;20026;-80
2022/06/19 14:06:45;;;;;;;2.75;1.30;;;;;;;;;;4977278;28;20550;-81
2022/06/19 14:09:20;;;;;;;3.15;0.90;;;;;;;;;;4978423;28;20030;-81
2022/06/19 14:12:05;;;;;;;3.70;1.10;;;;;;;;;;4975967;28;20046;-79
2022/06/19 14:14:33;;;;;;;2.70;1.00;;;;;;;;;;4978187;28;20023;-79
2022/06/19 14:17:20;;;;;;;4.50;0.98;;;;;;;;;;4977156;28;20027;-78
2022/06/19 14:20:12;;;;;;;2.05;1.20;;;;;;;;;;4975573;28;20026;-79
2022/06/19 14:23:02;;;;;;;1.90;0.93;;;;;;;;;;4958009;28;20499;-80
2022/06/19 14:25:57;;;;;;;2.50;1.00;;;;;;;;;;4976599;28;20499;-79
2022/06/19 14:28:26;;;;;;;1.45;0.82;;;;;;;;;;4975979;28;20038;-80
2022/06/19 14:30:54;;;;;;;4.22;1.73;;;;;;;;;;4976259;28;20467;-80
2022/06/19 14:33:34;;;;;;;1.88;1.08;;;;;;;;;;4976522;28;20129;-79
2022/06/19 14:36:11;;;;;;;1.35;1.05;;;;;;;;;;4976417;28;20030;-80
2022/06/19 14:38:37;;;;;;;2.97;0.95;;;;;;;;;;4975177;28;20048;-78
2022/06/19 14:41:12;;;;;;;3.92;1.40;;;;;;;;;;4975115;28;20523;-80
2022/06/19 14:43:41;;;;;;;1.75;1.00;;;;;;;;;;4958851;28;20054;-79
2022/06/19 14:46:36;;;;;;;3.53;1.17;;;;;;;;;;4974245;28;20106;-79
2022/06/19 14:49:29;;;;;;;4.07;1.20;;;;;;;;;;4976305;28;20450;-80
2022/06/19 14:52:39;;;;;;;3.43;1.40;;;;;;;;;;4975062;28;20062;-80
2022/06/19 14:55:25;;;;;;;3.95;1.40;;;;;;;;;;4972175;28;20141;-79
2022/06/19 14:57:59;;;;;;;2.67;1.08;;;;;;;;;;4976742;28;20510;-79
2022/06/19 15:00:50;;;;;;;3.47;1.30;;;;;;;;;;4976012;28;20034;-79
2022/06/19 15:03:24;;;;;;;3.47;1.10;;;;;;;;;;4974946;28;20053;-79
2022/06/19 15:05:54;;;;;;;4.05;1.38;;;;;;;;;;4978835;28;20497;-79
2022/06/19 15:08:26;;;;;;;2.80;1.30;;;;;;;;;;4975012;28;20035;-79
2022/06/19 15:11:02;;;;;;;4.63;1.65;;;;;;;;;;4975256;28;20023;-79
2022/06/19 15:13:36;;;;;;;3.50;1.30;;;;;;;;;;4975289;28;20391;-79
2022/06/19 15:16:11;;;;;;;4.05;1.35;;;;;;;;;;4977062;28;20118;-79
2022/06/19 15:18:36;;;;;;;5.57;1.60;;;;;;;;;;4976382;28;20030;-78
2022/06/19 15:21:14;;;;;;;5.68;1.50;;;;;;;;;;4974846;28;20372;-78
2022/06/19 15:23:44;;;;;;;3.17;1.60;;;;;;;;;;4974393;28;20042;-78
2022/06/19 15:26:36;;;;;;;5.15;1.40;;;;;;;;;;4975322;28;20431;-78
2022/06/19 15:29:21;;;;;;;3.70;1.40;;;;;;;;;;4976297;28;20038;-76
2022/06/19 15:31:55;;;;;;;3.85;1.50;;;;;;;;;;4977111;28;20034;-78